Aérodrome :
LOGIN :

S'inscrire | Disclaimer

   EN    FR    IT 

 










Légende :    VFR   VFR Marginal   IFR   IFR Intensif   IFR Très Intensif
Visi : 
Plafond : 
>= 8 km
>= 3000ft
5 à 8 km
1000 à 3000 ft
1500m à 5 km
500 à 1000 ft
800 à 1500m
200 à 500 ft
< 800m
< 200 ft
Symboles :   Orages  Brouillard  Fortes neiges  Fortes précipitations  Vent > 20 kt
SIGMETs :   Divers  Orages  Givrage  Turbulence  Onde Orograph.  Cendres Volcan.







- Altitude de l'aérodrome : 1708 ft
- Code IATA : SJJ


LQSA - Sarajevo

DERNIER METAR :
  • 280000Z 15015G31KT 070V230 CAVOK 17/M00 Q1012

METARs EXPIRÉS :
  • 272300Z 15010G20KT 080V210 CAVOK 17/00 Q1013
  • 272200Z 16012G23KT 070V210 CAVOK 17/03 Q1013

TAF TAF LQSA
Valide du 28 à 00h jusqu'au 29 à 00h UTC


272300Z 2800/2824 13006KT CAVOK TX20/2814Z TN11/2804Z
TEMPO 2800/2816 17016KT
PROB40
TEMPO 2807/2816 14020G35KT
PROB40
TEMPO 2816/2824 RA
Pas de NOTAMs connus pour ce terrain.



MET'MAP, la Météo Aéronautique d'un coup d'oeil ! - Copyright ORBIFLY Décembre 2007 - Disclaimer

ORBIFLY MET'MAP TEAM :

Programmation & Développement : Alexandra Zaïnal
Conception & Développement : Baudouin d'Aumeries
Co-Programmation & Développement : Marc-Olivier Méhu
Soutien technique & logistique : Manuel Goepfert

Contact : metmap@orbifly.com




SOURCES & CREDITS :

   NOAA